Time;durP1;ratioP1;P1;durP2;ratioP2;P2;SDS_P1;SDS_P2;PMS_P1;PMS_P2;Temp;Humidity;BMP_temperature;BMP_pressure;BME280_temperature;BME280_humidity;BME280_pressure;Samples;Min_cycle;Max_cycle;Signal;HPM_P1;HPM_P2
2021/04/02 00:00:52;;;;;;;0.30;0.30;;;8.00;99.90;;;;;;4401590;32;20070;-77
2021/04/02 00:03:21;;;;;;;0.30;0.30;;;8.00;99.90;;;;;;4414387;27;20069;-75
2021/04/02 00:05:48;;;;;;;0.20;0.20;;;8.10;99.90;;;;;;4430602;32;20385;-74
2021/04/02 00:08:14;;;;;;;0.30;0.30;;;8.20;99.90;;;;;;4431309;32;20062;-75
2021/04/02 00:10:48;;;;;;;0.30;0.30;;;8.30;99.90;;;;;;4430873;32;20119;-74
2021/04/02 00:13:17;;;;;;;0.30;0.30;;;8.20;99.90;;;;;;4431567;32;20069;-74
2021/04/02 00:15:42;;;;;;;0.30;0.30;;;8.10;99.90;;;;;;4431176;32;20124;-75
2021/04/02 00:18:08;;;;;;;0.30;0.30;;;8.10;99.90;;;;;;4431348;32;20191;-74
2021/04/02 00:20:35;;;;;;;0.40;0.40;;;8.00;99.90;;;;;;4431416;32;20470;-74
2021/04/02 00:23:00;;;;;;;0.62;0.50;;;8.00;99.90;;;;;;4431319;32;20082;-75
2021/04/02 00:25:26;;;;;;;1.25;0.52;;;8.10;99.90;;;;;;4430397;32;20061;-74
2021/04/02 00:27:52;;;;;;;0.35;0.35;;;8.10;99.90;;;;;;4431518;32;20070;-74
2021/04/02 00:30:21;;;;;;;0.30;0.30;;;8.10;99.90;;;;;;4431658;32;20056;-75
2021/04/02 00:32:47;;;;;;;0.20;0.20;;;8.10;99.90;;;;;;4432066;32;20453;-75
2021/04/02 00:35:13;;;;;;;0.30;0.30;;;8.10;99.90;;;;;;4431508;32;20057;-75
2021/04/02 00:37:40;;;;;;;0.30;0.30;;;7.80;99.90;;;;;;4430540;32;20069;-74
2021/04/02 00:40:12;;;;;;;0.20;0.20;;;7.90;99.90;;;;;;4431293;32;20069;-75
2021/04/02 00:42:38;;;;;;;0.30;0.30;;;8.00;99.90;;;;;;4427422;32;20042;-75
2021/04/02 00:45:04;;;;;;;0.20;0.20;;;8.10;99.90;;;;;;4415396;32;20058;-74
2021/04/02 00:47:29;;;;;;;0.85;0.50;;;8.00;99.90;;;;;;4416116;32;20070;-74
2021/04/02 00:49:55;;;;;;;0.77;0.77;;;8.10;99.90;;;;;;4415171;32;20078;-75
2021/04/02 00:52:20;;;;;;;1.17;0.75;;;8.10;99.90;;;;;;4415771;32;20102;-75
2021/04/02 00:54:46;;;;;;;0.43;0.43;;;8.00;99.90;;;;;;4414512;32;20070;-75
2021/04/02 00:57:11;;;;;;;1.92;0.50;;;8.00;99.90;;;;;;4415302;32;20061;-75
2021/04/02 00:59:37;;;;;;;0.20;0.20;;;7.80;99.90;;;;;;4415226;32;20065;-75
2021/04/02 01:02:03;;;;;;;0.20;0.20;;;7.70;99.90;;;;;;4415282;32;20066;-75
2021/04/02 01:04:28;;;;;;;0.37;0.37;;;7.70;99.90;;;;;;4414824;32;20467;-75
2021/04/02 01:06:56;;;;;;;0.80;0.80;;;7.80;99.90;;;;;;4413995;32;20082;-75
2021/04/02 01:09:21;;;;;;;0.60;0.60;;;8.00;99.90;;;;;;4413592;32;20078;-73
2021/04/02 01:11:47;;;;;;;0.30;0.30;;;8.00;99.90;;;;;;4415326;32;20062;-74
2021/04/02 01:14:12;;;;;;;0.30;0.30;;;7.90;99.90;;;;;;4416083;32;20132;-74
2021/04/02 01:16:38;;;;;;;0.20;0.20;;;7.70;99.90;;;;;;4415497;32;20078;-75
2021/04/02 01:19:15;;;;;;;0.30;0.30;;;7.50;99.90;;;;;;4415459;32;20074;-74
2021/04/02 01:21:45;;;;;;;0.50;0.50;;;7.40;99.90;;;;;;4415022;32;20070;-74
2021/04/02 01:24:24;;;;;;;0.22;0.22;;;7.50;99.90;;;;;;4414184;32;20091;-73
2021/04/02 01:26:55;;;;;;;0.40;0.40;;;7.50;99.90;;;;;;4414661;32;20077;-75
2021/04/02 01:29:25;;;;;;;0.35;0.35;;;7.40;99.90;;;;;;4413941;32;20073;-74
2021/04/02 01:31:55;;;;;;;0.30;0.30;;;7.50;99.90;;;;;;4415404;32;20073;-74
2021/04/02 01:34:24;;;;;;;0.30;0.30;;;7.40;99.90;;;;;;4415009;32;20082;-75
2021/04/02 01:36:53;;;;;;;0.40;0.40;;;7.30;99.90;;;;;;4414041;32;20415;-75
2021/04/02 01:39:20;;;;;;;0.43;0.43;;;7.30;99.90;;;;;;4414323;32;20514;-75
2021/04/02 01:41:49;;;;;;;0.17;0.17;;;7.20;99.90;;;;;;4414907;32;20139;-76
2021/04/02 01:44:16;;;;;;;0.60;0.60;;;7.20;99.90;;;;;;4414606;32;20087;-75
2021/04/02 01:46:42;;;;;;;0.30;0.30;;;7.10;99.90;;;;;;4415683;32;20121;-75
2021/04/02 01:49:11;;;;;;;0.30;0.30;;;7.10;99.90;;;;;;4414657;32;20514;-75
2021/04/02 01:51:39;;;;;;;0.30;0.30;;;7.10;99.90;;;;;;4414530;32;20522;-75
2021/04/02 01:54:05;;;;;;;0.50;0.50;;;7.10;99.90;;;;;;4414568;32;20062;-74
2021/04/02 01:56:33;;;;;;;0.20;0.20;;;7.10;99.90;;;;;;4414576;32;20427;-74
2021/04/02 01:58:59;;;;;;;0.40;0.32;;;7.00;99.90;;;;;;4414435;32;20082;-74
2021/04/02 02:01:32;;;;;;;0.30;0.30;;;7.00;99.90;;;;;;4415300;32;20070;-74
2021/04/02 02:04:00;;;;;;;0.30;0.30;;;7.00;99.90;;;;;;4414289;32;20074;-74
2021/04/02 02:06:26;;;;;;;0.22;0.22;;;6.90;99.90;;;;;;4414553;32;20065;-74
2021/04/02 02:08:52;;;;;;;0.30;0.30;;;7.00;99.90;;;;;;4414133;32;20165;-74
2021/04/02 02:11:19;;;;;;;0.47;0.47;;;7.00;99.90;;;;;;4415062;32;20082;-75
2021/04/02 02:13:49;;;;;;;0.65;0.37;;;7.00;99.90;;;;;;4414236;32;20073;-75
2021/04/02 02:16:19;;;;;;;0.43;0.43;;;6.70;99.90;;;;;;4413806;32;20097;-74
2021/04/02 02:18:49;;;;;;;0.30;0.30;;;6.70;99.90;;;;;;4414099;32;20081;-74
2021/04/02 02:21:15;;;;;;;0.70;0.70;;;6.80;99.90;;;;;;4414935;32;20148;-75
2021/04/02 02:23:43;;;;;;;0.65;0.50;;;6.70;99.90;;;;;;4414216;32;20090;-74
2021/04/02 02:26:08;;;;;;;0.40;0.40;;;6.60;99.90;;;;;;4412354;32;20265;-74
2021/04/02 02:28:34;;;;;;;0.37;0.37;;;6.50;99.90;;;;;;4414196;32;20054;-74
2021/04/02 02:31:00;;;;;;;0.30;0.30;;;6.50;99.90;;;;;;4413986;32;20077;-74
2021/04/02 02:33:26;;;;;;;0.30;0.30;;;6.40;99.90;;;;;;4414342;32;20420;-74
2021/04/02 02:35:53;;;;;;;0.30;0.30;;;6.40;99.90;;;;;;4413750;32;20077;-74
2021/04/02 02:38:20;;;;;;;0.55;0.55;;;6.30;99.90;;;;;;4413490;32;20069;-74
2021/04/02 02:40:46;;;;;;;0.32;0.32;;;6.30;99.90;;;;;;4413570;32;20070;-75
2021/04/02 02:43:15;;;;;;;0.20;0.20;;;6.30;99.90;;;;;;4413831;32;20062;-74
2021/04/02 02:45:40;;;;;;;0.20;0.20;;;6.20;99.90;;;;;;4413435;32;20078;-74
2021/04/02 02:48:07;;;;;;;0.30;0.30;;;6.30;99.90;;;;;;4413733;32;20066;-74
2021/04/02 02:50:35;;;;;;;0.20;0.20;;;6.20;99.90;;;;;;4413762;32;20073;-74
2021/04/02 02:53:03;;;;;;;0.40;0.40;;;6.20;99.90;;;;;;4414302;32;20539;-74
2021/04/02 02:55:31;;;;;;;0.32;0.32;;;6.20;99.90;;;;;;4413477;32;20069;-74
2021/04/02 02:57:59;;;;;;;0.25;0.25;;;6.20;99.90;;;;;;4414005;32;20129;-74
2021/04/02 03:00:34;;;;;;;0.30;0.30;;;6.20;99.90;;;;;;4413855;32;20077;-75
2021/04/02 03:03:04;;;;;;;0.30;0.30;;;6.10;99.90;;;;;;4413814;32;20085;-75
2021/04/02 03:05:31;;;;;;;0.50;0.50;;;6.00;99.90;;;;;;4413281;32;20081;-74
2021/04/02 03:08:01;;;;;;;0.30;0.30;;;6.00;99.90;;;;;;4414010;32;20418;-75
2021/04/02 03:10:28;;;;;;;0.40;0.40;;;5.80;99.90;;;;;;4413583;32;20061;-75
2021/04/02 03:12:55;;;;;;;0.30;0.30;;;6.00;99.90;;;;;;4413376;32;20069;-74
2021/04/02 03:15:22;;;;;;;0.40;0.40;;;6.00;99.90;;;;;;4413517;32;20521;-75
2021/04/02 03:17:52;;;;;;;0.37;0.37;;;5.80;99.90;;;;;;4415140;32;20070;-73
2021/04/02 03:20:18;;;;;;;0.50;0.50;;;5.80;99.90;;;;;;4413470;32;20120;-73
2021/04/02 03:22:44;;;;;;;0.30;0.30;;;5.80;99.90;;;;;;4413450;32;20194;-74
2021/04/02 03:25:15;;;;;;;0.45;0.45;;;5.70;99.90;;;;;;4412791;32;20080;-74
2021/04/02 03:27:42;;;;;;;0.25;0.25;;;5.80;99.90;;;;;;4413236;32;20078;-74
2021/04/02 03:30:12;;;;;;;0.20;0.20;;;5.70;99.90;;;;;;4415574;32;20122;-74
2021/04/02 03:32:41;;;;;;;0.30;0.30;;;5.70;99.90;;;;;;4416107;32;20491;-74
2021/04/02 03:35:09;;;;;;;0.40;0.40;;;5.60;99.90;;;;;;4417496;32;20066;-74
2021/04/02 03:37:37;;;;;;;0.30;0.30;;;5.50;99.90;;;;;;4416424;32;20082;-74
2021/04/02 03:40:06;;;;;;;0.35;0.35;;;5.40;99.90;;;;;;4415861;32;20069;-74
2021/04/02 03:42:34;;;;;;;0.60;0.60;;;5.40;99.90;;;;;;4415819;32;20117;-75
2021/04/02 03:45:03;;;;;;;0.30;0.30;;;5.20;99.90;;;;;;4417196;32;20066;-74
2021/04/02 03:47:29;;;;;;;0.30;0.30;;;5.10;99.90;;;;;;4417034;32;20117;-74
2021/04/02 03:49:56;;;;;;;1.48;0.82;;;5.10;99.90;;;;;;4415622;32;20077;-74
2021/04/02 03:52:30;;;;;;;0.30;0.30;;;5.20;99.90;;;;;;4415874;32;20482;-75
2021/04/02 03:54:57;;;;;;;0.43;0.43;;;5.10;99.90;;;;;;4415858;32;20070;-74
2021/04/02 03:57:25;;;;;;;0.30;0.30;;;5.10;99.90;;;;;;4416539;32;20069;-75
2021/04/02 03:59:53;;;;;;;8.68;0.80;;;5.10;99.90;;;;;;4415887;32;20078;-75
2021/04/02 04:02:20;;;;;;;0.30;0.30;;;4.80;99.90;;;;;;4415359;32;20071;-75
2021/04/02 04:04:47;;;;;;;0.20;0.20;;;4.90;99.90;;;;;;4416375;32;20078;-75
2021/04/02 04:07:14;;;;;;;0.35;0.35;;;4.90;99.90;;;;;;4416003;32;20082;-75
2021/04/02 04:09:41;;;;;;;0.30;0.30;;;4.90;99.90;;;;;;4413712;32;20572;-75
2021/04/02 04:12:10;;;;;;;0.32;0.32;;;4.70;99.90;;;;;;4417447;32;20090;-74
2021/04/02 04:14:38;;;;;;;0.30;0.30;;;4.60;99.90;;;;;;4416828;32;20066;-74
2021/04/02 04:17:05;;;;;;;0.37;0.37;;;4.70;99.90;;;;;;4415286;32;20116;-74
2021/04/02 04:19:33;;;;;;;0.40;0.40;;;4.80;99.90;;;;;;4416519;32;20089;-74
2021/04/02 04:22:00;;;;;;;0.30;0.30;;;4.80;99.90;;;;;;4416358;32;20502;-74
2021/04/02 04:24:28;;;;;;;0.25;0.25;;;4.80;99.90;;;;;;4415462;32;20460;-75
2021/04/02 04:26:56;;;;;;;0.30;0.30;;;4.70;99.90;;;;;;4416054;32;20066;-74
2021/04/02 04:29:25;;;;;;;3.75;0.77;;;4.80;99.90;;;;;;4415394;32;20408;-74
2021/04/02 04:31:52;;;;;;;0.30;0.30;;;4.90;99.90;;;;;;4415140;32;20069;-75
2021/04/02 04:34:19;;;;;;;0.30;0.30;;;4.90;99.90;;;;;;4415432;32;20082;-75
2021/04/02 04:36:46;;;;;;;0.30;0.30;;;5.00;99.90;;;;;;4415245;32;20124;-74
2021/04/02 04:39:12;;;;;;;0.47;0.47;;;4.90;99.90;;;;;;4415417;32;20074;-75
2021/04/02 04:41:39;;;;;;;0.30;0.30;;;4.80;99.90;;;;;;4415406;32;20086;-73
2021/04/02 04:44:05;;;;;;;1.10;1.00;;;5.00;99.90;;;;;;4415599;32;20073;-74
2021/04/02 04:46:32;;;;;;;0.40;0.40;;;5.00;99.90;;;;;;4415034;32;20451;-75
2021/04/02 04:48:59;;;;;;;0.30;0.30;;;4.60;99.90;;;;;;4415126;32;20412;-75
2021/04/02 04:51:28;;;;;;;0.30;0.30;;;4.40;99.90;;;;;;4414901;32;20062;-75
2021/04/02 04:53:56;;;;;;;0.65;0.65;;;4.50;99.90;;;;;;4414791;32;20189;-75
2021/04/02 04:56:24;;;;;;;0.40;0.40;;;4.60;99.90;;;;;;4414815;32;20511;-75
2021/04/02 04:58:52;;;;;;;0.40;0.40;;;4.60;99.90;;;;;;4415647;32;20077;-75
2021/04/02 05:01:20;;;;;;;0.30;0.30;;;4.70;99.90;;;;;;4414647;32;20120;-75
2021/04/02 05:03:46;;;;;;;0.25;0.25;;;4.70;99.90;;;;;;4408199;32;20082;-75
2021/04/02 05:06:14;;;;;;;0.40;0.40;;;4.90;99.90;;;;;;4404367;32;20132;-75
2021/04/02 05:08:42;;;;;;;0.40;0.40;;;4.70;99.90;;;;;;4414575;32;20483;-75
2021/04/02 05:11:12;;;;;;;1.95;0.90;;;4.70;99.90;;;;;;4413926;32;20078;-75
2021/04/02 05:13:39;;;;;;;0.50;0.45;;;4.60;99.90;;;;;;4410021;32;20062;-75
2021/04/02 05:16:05;;;;;;;0.40;0.40;;;4.80;99.90;;;;;;4425694;32;20062;-75
2021/04/02 05:18:33;;;;;;;0.35;0.35;;;4.90;99.90;;;;;;4430114;32;20079;-75
2021/04/02 05:20:58;;;;;;;0.50;0.50;;;4.70;99.90;;;;;;4415009;32;20058;-75
2021/04/02 05:23:24;;;;;;;0.28;0.28;;;4.80;99.90;;;;;;4414870;32;20073;-75
2021/04/02 05:25:49;;;;;;;0.30;0.30;;;4.90;99.90;;;;;;4415500;32;20058;-75
2021/04/02 05:28:15;;;;;;;0.40;0.40;;;4.90;99.90;;;;;;4414259;32;20065;-75
2021/04/02 05:30:41;;;;;;;1.00;0.98;;;4.80;99.90;;;;;;4414788;32;20078;-75
2021/04/02 05:33:06;;;;;;;0.30;0.30;;;4.70;99.90;;;;;;4415061;32;20363;-75
2021/04/02 05:35:33;;;;;;;0.68;0.68;;;4.70;99.90;;;;;;4414028;32;20074;-74
2021/04/02 05:37:59;;;;;;;0.32;0.32;;;4.60;99.90;;;;;;4416156;32;20085;-75
2021/04/02 05:40:25;;;;;;;0.50;0.50;;;4.80;99.90;;;;;;4414734;32;20113;-75
2021/04/02 05:43:01;;;;;;;0.40;0.40;;;4.90;99.90;;;;;;4414482;32;20066;-75
2021/04/02 05:45:29;;;;;;;0.40;0.40;;;4.90;99.90;;;;;;4416019;32;20118;-75
2021/04/02 05:47:59;;;;;;;0.30;0.30;;;4.90;99.90;;;;;;4414489;32;20073;-75
2021/04/02 05:50:26;;;;;;;0.30;0.30;;;4.80;99.90;;;;;;4414500;32;20078;-75
2021/04/02 05:52:54;;;;;;;0.50;0.50;;;4.90;99.90;;;;;;4414405;32;20078;-75
2021/04/02 05:55:21;;;;;;;0.40;0.40;;;4.90;99.90;;;;;;4413671;32;20065;-75
2021/04/02 05:57:48;;;;;;;0.30;0.30;;;4.90;99.90;;;;;;4414261;32;20510;-75
2021/04/02 06:00:15;;;;;;;0.50;0.50;;;4.90;99.90;;;;;;4414337;32;20574;-75
2021/04/02 06:02:40;;;;;;;0.30;0.30;;;5.10;99.90;;;;;;4413930;32;20128;-75
2021/04/02 06:05:08;;;;;;;1.35;0.70;;;5.10;99.90;;;;;;4414842;32;20125;-74
2021/04/02 06:07:37;;;;;;;0.85;0.77;;;5.10;99.90;;;;;;4414927;32;20078;-75
2021/04/02 06:10:03;;;;;;;0.40;0.40;;;5.20;99.90;;;;;;4414146;32;20078;-74
2021/04/02 06:12:29;;;;;;;12.15;0.60;;;5.20;99.90;;;;;;4414478;32;20561;-75
2021/04/02 06:14:55;;;;;;;0.45;0.45;;;5.20;99.90;;;;;;4413887;32;20082;-75
2021/04/02 06:17:20;;;;;;;0.40;0.40;;;5.30;99.90;;;;;;4414561;32;20646;-75
2021/04/02 06:20:04;;;;;;;0.55;0.45;;;5.30;99.90;;;;;;4413939;32;20066;-75
2021/04/02 06:22:29;;;;;;;0.50;0.50;;;5.30;99.90;;;;;;4415598;32;20443;-75
2021/04/02 06:25:02;;;;;;;0.50;0.50;;;5.40;99.90;;;;;;4412910;32;20079;-75
2021/04/02 06:27:29;;;;;;;0.50;0.50;;;5.50;99.90;;;;;;4413786;32;20445;-75
2021/04/02 06:30:03;;;;;;;0.45;0.45;;;5.60;99.90;;;;;;4414061;32;20070;-74
2021/04/02 06:32:34;;;;;;;0.35;0.35;;;5.70;99.90;;;;;;4414317;32;20070;-75
2021/04/02 06:35:07;;;;;;;0.50;0.50;;;5.90;99.90;;;;;;4413918;32;20066;-75
2021/04/02 06:37:33;;;;;;;0.95;0.70;;;6.00;99.90;;;;;;4412982;32;20500;-75
2021/04/02 06:39:58;;;;;;;0.40;0.40;;;6.00;99.90;;;;;;4415207;32;20093;-75
2021/04/02 06:42:33;;;;;;;0.40;0.40;;;5.90;99.90;;;;;;4414365;32;20073;-75
2021/04/02 06:45:00;;;;;;;0.75;0.75;;;5.70;99.90;;;;;;4413575;32;20074;-75
2021/04/02 06:47:35;;;;;;;1.92;0.80;;;5.60;99.90;;;;;;4413955;32;20502;-75
2021/04/02 06:50:00;;;;;;;1.55;0.95;;;5.50;99.90;;;;;;4413617;32;20061;-75
2021/04/02 06:52:26;;;;;;;0.57;0.52;;;5.50;99.90;;;;;;4413206;32;20593;-75
2021/04/02 06:54:54;;;;;;;0.40;0.40;;;5.50;99.90;;;;;;4426309;32;20057;-75
2021/04/02 06:57:22;;;;;;;0.40;0.35;;;5.50;99.90;;;;;;4424650;32;20066;-75
2021/04/02 06:59:50;;;;;;;0.50;0.50;;;5.60;99.90;;;;;;4413500;32;20066;-75
2021/04/02 07:02:17;;;;;;;0.50;0.50;;;5.80;99.90;;;;;;4414167;32;20090;-75
2021/04/02 07:04:45;;;;;;;0.62;0.62;;;5.60;99.90;;;;;;4412813;32;20069;-75
2021/04/02 07:07:11;;;;;;;1.05;0.75;;;5.70;99.90;;;;;;4412739;32;20090;-75
2021/04/02 07:09:40;;;;;;;0.70;0.70;;;5.90;99.90;;;;;;4414389;32;20235;-75
2021/04/02 07:12:09;;;;;;;0.50;0.50;;;6.10;99.90;;;;;;4412740;32;20057;-75
2021/04/02 07:14:35;;;;;;;0.80;0.77;;;6.30;99.90;;;;;;4412872;32;20119;-75
2021/04/02 07:17:01;;;;;;;1.08;0.85;;;6.30;99.90;;;;;;4413768;32;20404;-75
2021/04/02 07:19:28;;;;;;;0.90;0.55;;;6.40;99.90;;;;;;4415034;32;20494;-75
2021/04/02 07:21:54;;;;;;;1.45;1.35;;;6.40;99.90;;;;;;4414632;32;20058;-75
2021/04/02 07:24:19;;;;;;;0.57;0.57;;;6.50;99.90;;;;;;4412861;32;20158;-74
2021/04/02 07:26:46;;;;;;;0.70;0.70;;;6.10;99.90;;;;;;4413571;32;20061;-75
2021/04/02 07:29:13;;;;;;;0.60;0.60;;;5.90;99.90;;;;;;4413545;32;20078;-75
2021/04/02 07:31:39;;;;;;;0.40;0.40;;;5.80;99.90;;;;;;4413098;32;20576;-75
2021/04/02 07:34:06;;;;;;;0.40;0.40;;;6.00;99.90;;;;;;4413424;32;20185;-75
2021/04/02 07:36:35;;;;;;;2.17;1.02;;;6.00;99.90;;;;;;4413381;32;20635;-75
2021/04/02 07:39:05;;;;;;;0.52;0.52;;;6.10;99.90;;;;;;4413207;32;20495;-75
2021/04/02 07:41:38;;;;;;;1.23;0.60;;;6.20;99.90;;;;;;4412899;32;20066;-75
2021/04/02 07:44:07;;;;;;;0.30;0.30;;;6.20;99.90;;;;;;4413843;32;20085;-75
2021/04/02 07:46:33;;;;;;;1.65;0.70;;;6.10;99.90;;;;;;4420134;32;20634;-75
2021/04/02 07:49:07;;;;;;;1.05;0.70;;;6.20;99.90;;;;;;4428517;32;20114;-75
2021/04/02 07:51:50;;;;;;;0.62;0.62;;;6.10;99.90;;;;;;4428781;32;20513;-75
2021/04/02 07:54:37;;;;;;;3.03;1.60;;;5.70;99.90;;;;;;4428051;32;20073;-75
2021/04/02 07:57:16;;;;;;;0.52;0.52;;;5.80;99.90;;;;;;4417330;32;20062;-74
2021/04/02 07:59:44;;;;;;;0.57;0.57;;;6.00;99.90;;;;;;4398707;32;20087;-75
2021/04/02 08:02:14;;;;;;;3.60;0.80;;;6.20;99.90;;;;;;4398110;32;20074;-74
2021/04/02 08:04:42;;;;;;;2.62;1.52;;;6.40;99.90;;;;;;4407350;32;20086;-74
2021/04/02 08:07:16;;;;;;;1.45;0.82;;;6.50;99.90;;;;;;4404411;32;20074;-75
2021/04/02 08:09:47;;;;;;;0.50;0.47;;;6.60;99.90;;;;;;4398286;32;20062;-75
2021/04/02 08:12:12;;;;;;;1.25;1.15;;;6.90;99.90;;;;;;4398153;32;20058;-75
2021/04/02 08:14:38;;;;;;;0.93;0.85;;;7.00;99.90;;;;;;4397463;32;20086;-75
2021/04/02 08:17:09;;;;;;;0.30;0.30;;;7.00;99.90;;;;;;4400707;32;20487;-75
2021/04/02 08:19:39;;;;;;;0.57;0.57;;;6.80;99.90;;;;;;4400042;32;20137;-75
2021/04/02 08:22:09;;;;;;;0.47;0.47;;;6.70;99.90;;;;;;4400009;32;20063;-75
2021/04/02 08:24:38;;;;;;;0.32;0.32;;;6.50;99.90;;;;;;4399840;32;20066;-75
2021/04/02 08:27:06;;;;;;;0.25;0.25;;;6.50;99.90;;;;;;4400691;32;20071;-74
2021/04/02 08:29:32;;;;;;;0.30;0.30;;;6.80;99.90;;;;;;4400483;32;20527;-74
2021/04/02 08:32:00;;;;;;;0.30;0.30;;;7.10;99.90;;;;;;4400850;32;20066;-74
2021/04/02 08:34:28;;;;;;;1.23;0.47;;;7.40;99.90;;;;;;4401066;32;20066;-74
2021/04/02 08:36:56;;;;;;;0.40;0.40;;;7.20;99.90;;;;;;4400313;32;20082;-75
2021/04/02 08:39:24;;;;;;;0.93;0.47;;;7.30;99.90;;;;;;4400034;32;20090;-75
2021/04/02 08:41:56;;;;;;;0.30;0.30;;;7.20;99.90;;;;;;4400625;32;20451;-74
2021/04/02 08:44:43;;;;;;;0.80;0.80;;;7.20;99.90;;;;;;4400032;32;20409;-74
2021/04/02 08:47:11;;;;;;;0.40;0.40;;;7.30;99.90;;;;;;4410235;32;20070;-74
2021/04/02 08:49:40;;;;;;;1.55;0.60;;;7.40;99.90;;;;;;4430695;32;20069;-74
2021/04/02 08:52:08;;;;;;;0.20;0.20;;;7.60;99.90;;;;;;4430603;32;20069;-74
2021/04/02 08:54:34;;;;;;;0.40;0.40;;;7.70;99.90;;;;;;4429911;32;20062;-74
2021/04/02 08:57:00;;;;;;;0.55;0.50;;;7.90;99.90;;;;;;4430471;32;20069;-74
2021/04/02 08:59:30;;;;;;;0.75;0.40;;;7.80;99.90;;;;;;4430875;32;20069;-75
2021/04/02 09:01:55;;;;;;;0.50;0.50;;;7.80;99.90;;;;;;4430423;32;20105;-74
2021/04/02 09:04:22;;;;;;;0.30;0.30;;;7.60;99.90;;;;;;4430037;32;20089;-74
2021/04/02 09:06:48;;;;;;;0.40;0.40;;;7.50;99.90;;;;;;4424152;32;20066;-74
2021/04/02 09:09:23;;;;;;;1.10;0.62;;;7.50;99.90;;;;;;4415248;32;20058;-73
2021/04/02 09:11:52;;;;;;;0.40;0.40;;;7.60;99.90;;;;;;4414152;32;20061;-73
2021/04/02 09:14:18;;;;;;;0.40;0.40;;;7.90;99.90;;;;;;4414782;32;20070;-74
2021/04/02 09:16:46;;;;;;;0.30;0.30;;;8.10;99.90;;;;;;4416730;32;20054;-74
2021/04/02 09:19:14;;;;;;;0.30;0.30;;;8.10;99.90;;;;;;4414924;32;20070;-74
2021/04/02 09:21:40;;;;;;;0.60;0.60;;;8.10;99.90;;;;;;4415498;32;20078;-74
2021/04/02 09:24:06;;;;;;;0.45;0.45;;;8.40;99.90;;;;;;4414251;32;20465;-73
2021/04/02 09:26:38;;;;;;;0.30;0.30;;;8.60;99.90;;;;;;4414143;32;20545;-74
2021/04/02 09:29:06;;;;;;;0.32;0.32;;;8.80;99.90;;;;;;4414849;32;20566;-75
2021/04/02 09:31:34;;;;;;;0.37;0.32;;;8.90;99.90;;;;;;4415155;32;20061;-75
2021/04/02 09:34:05;;;;;;;0.30;0.30;;;8.90;99.90;;;;;;4415671;32;20122;-74
2021/04/02 09:36:33;;;;;;;0.30;0.30;;;9.00;99.90;;;;;;4414892;32;20062;-75
2021/04/02 09:39:09;;;;;;;0.35;0.35;;;9.10;99.90;;;;;;4411633;32;100216;-75
2021/04/02 09:41:36;;;;;;;0.32;0.32;;;9.20;99.90;;;;;;4414486;32;20058;-75
2021/04/02 09:44:08;;;;;;;0.22;0.22;;;9.30;99.90;;;;;;4414555;32;20120;-74
2021/04/02 09:46:38;;;;;;;0.40;0.40;;;9.50;99.90;;;;;;4421655;32;20085;-74
2021/04/02 09:49:07;;;;;;;0.30;0.30;;;9.90;99.90;;;;;;4430139;32;20420;-74
2021/04/02 09:51:36;;;;;;;1.75;0.77;;;9.90;99.90;;;;;;4430060;32;20147;-74
2021/04/02 09:54:02;;;;;;;2.08;0.60;;;9.70;99.90;;;;;;4429762;32;20081;-74
2021/04/02 09:56:28;;;;;;;0.40;0.40;;;9.90;99.90;;;;;;4429695;32;20125;-74
2021/04/02 09:58:53;;;;;;;0.47;0.47;;;9.80;99.90;;;;;;4418469;32;20530;-74
2021/04/02 10:01:19;;;;;;;0.30;0.30;;;9.90;99.90;;;;;;4414134;32;20086;-75
2021/04/02 10:03:45;;;;;;;3.20;0.82;;;10.10;99.90;;;;;;4413730;32;20065;-74
2021/04/02 10:06:11;;;;;;;0.40;0.40;;;10.40;99.90;;;;;;4413557;32;20077;-74
2021/04/02 10:08:37;;;;;;;0.43;0.43;;;10.50;99.90;;;;;;4413994;32;20062;-74
2021/04/02 10:11:02;;;;;;;0.20;0.20;;;10.60;99.90;;;;;;4414217;32;20137;-74
2021/04/02 10:13:28;;;;;;;0.40;0.40;;;10.60;99.90;;;;;;4414586;32;20077;-74
2021/04/02 10:15:53;;;;;;;0.20;0.20;;;10.80;99.90;;;;;;4413648;32;20061;-74
2021/04/02 10:18:20;;;;;;;0.30;0.30;;;10.90;99.90;;;;;;4414307;32;20179;-74
2021/04/02 10:20:46;;;;;;;0.35;0.35;;;11.20;99.90;;;;;;4415019;32;20058;-74
2021/04/02 10:23:11;;;;;;;0.65;0.65;;;11.20;99.90;;;;;;4414030;32;20137;-74
2021/04/02 10:25:37;;;;;;;0.25;0.25;;;10.80;99.90;;;;;;4413612;32;20490;-74
2021/04/02 10:28:03;;;;;;;0.40;0.40;;;10.90;99.90;;;;;;4413713;32;20075;-74
2021/04/02 10:30:28;;;;;;;0.25;0.25;;;11.50;99.90;;;;;;4413670;32;20078;-74
2021/04/02 10:32:54;;;;;;;0.28;0.28;;;11.70;98.00;;;;;;4413947;32;20074;-74
2021/04/02 10:35:20;;;;;;;3.20;0.62;;;11.80;98.00;;;;;;4413361;32;20074;-74
2021/04/02 10:37:45;;;;;;;0.25;0.25;;;11.80;96.20;;;;;;4414077;32;20078;-75
2021/04/02 10:40:12;;;;;;;0.30;0.30;;;11.70;96.50;;;;;;4413314;32;20263;-74
2021/04/02 10:42:38;;;;;;;0.40;0.40;;;12.00;96.00;;;;;;4413486;32;20066;-74
2021/04/02 10:45:05;;;;;;;0.65;0.60;;;12.20;95.90;;;;;;4414070;32;20077;-74
2021/04/02 10:47:30;;;;;;;0.30;0.30;;;12.30;95.70;;;;;;4414298;32;20443;-74
2021/04/02 10:49:56;;;;;;;0.30;0.30;;;12.30;95.00;;;;;;4414709;32;20069;-75
2021/04/02 10:52:21;;;;;;;0.30;0.30;;;12.40;95.00;;;;;;4414299;32;20054;-75
2021/04/02 10:54:47;;;;;;;0.30;0.30;;;12.80;94.30;;;;;;4398537;32;20065;-74
2021/04/02 10:57:14;;;;;;;0.30;0.30;;;13.10;94.80;;;;;;4398652;32;20487;-75
2021/04/02 10:59:40;;;;;;;0.20;0.20;;;13.20;94.80;;;;;;4414019;32;20062;-75
2021/04/02 11:02:05;;;;;;;0.30;0.30;;;13.00;93.80;;;;;;4413397;32;20073;-74
2021/04/02 11:04:31;;;;;;;0.35;0.35;;;13.10;94.10;;;;;;4412974;32;20077;-75
2021/04/02 11:06:56;;;;;;;0.40;0.40;;;13.20;93.70;;;;;;4413091;32;20075;-75
2021/04/02 11:09:22;;;;;;;0.30;0.30;;;12.90;93.50;;;;;;4413719;32;20078;-74
2021/04/02 11:11:48;;;;;;;0.40;0.40;;;13.30;92.80;;;;;;4414118;32;20389;-74
2021/04/02 11:14:13;;;;;;;1.10;0.40;;;13.60;92.00;;;;;;4413795;32;20066;-75
2021/04/02 11:16:39;;;;;;;0.30;0.30;;;13.10;92.20;;;;;;4412888;32;20062;-75
2021/04/02 11:19:04;;;;;;;0.30;0.30;;;12.70;92.90;;;;;;4413315;32;20066;-75
2021/04/02 11:21:30;;;;;;;0.40;0.40;;;13.10;92.90;;;;;;4413513;32;20075;-75
2021/04/02 11:23:55;;;;;;;0.30;0.30;;;13.40;91.20;;;;;;4412950;32;20062;-74
2021/04/02 11:26:23;;;;;;;0.40;0.40;;;13.40;91.50;;;;;;4413270;32;20078;-74
2021/04/02 11:28:48;;;;;;;0.40;0.40;;;13.20;91.30;;;;;;4413377;32;20078;-75
2021/04/02 11:31:14;;;;;;;0.30;0.30;;;13.40;91.90;;;;;;4413305;32;20058;-74
2021/04/02 11:33:39;;;;;;;0.30;0.30;;;14.00;91.40;;;;;;4414167;32;20073;-73
2021/04/02 11:36:05;;;;;;;1.65;0.62;;;14.70;90.40;;;;;;4413897;32;20554;-74
2021/04/02 11:38:31;;;;;;;0.32;0.32;;;14.70;90.40;;;;;;4413498;32;20069;-74
2021/04/02 11:40:57;;;;;;;0.20;0.20;;;14.80;88.00;;;;;;4413322;32;20062;-74
2021/04/02 11:43:23;;;;;;;0.55;0.30;;;14.90;88.40;;;;;;4414009;32;20554;-73
2021/04/02 11:45:49;;;;;;;0.37;0.32;;;15.30;86.60;;;;;;4415491;32;20119;-73
2021/04/02 11:48:15;;;;;;;0.30;0.30;;;15.40;86.30;;;;;;4428381;32;20111;-73
2021/04/02 11:50:40;;;;;;;0.20;0.20;;;15.70;84.80;;;;;;4430489;32;20070;-74
2021/04/02 11:53:06;;;;;;;0.30;0.30;;;15.80;84.70;;;;;;4430888;32;20406;-74
2021/04/02 11:55:31;;;;;;;0.30;0.30;;;16.20;83.20;;;;;;4430344;32;20444;-74
2021/04/02 11:57:57;;;;;;;0.47;0.40;;;16.40;79.90;;;;;;4426220;32;20129;-74
2021/04/02 12:00:23;;;;;;;0.62;0.52;;;16.40;77.00;;;;;;4415940;32;20077;-75
2021/04/02 12:02:49;;;;;;;0.20;0.20;;;15.80;76.50;;;;;;4417799;32;20526;-75
2021/04/02 12:05:15;;;;;;;0.20;0.20;;;15.60;76.40;;;;;;4416271;32;20062;-74
2021/04/02 12:07:41;;;;;;;0.20;0.20;;;15.50;77.70;;;;;;4415359;32;20526;-75
2021/04/02 12:10:07;;;;;;;0.20;0.20;;;16.10;76.60;;;;;;4416482;32;20065;-75
2021/04/02 12:12:33;;;;;;;0.20;0.20;;;16.30;74.80;;;;;;4416689;32;20070;-75
2021/04/02 12:14:59;;;;;;;0.20;0.20;;;16.50;73.60;;;;;;4415808;32;20086;-75
2021/04/02 12:17:25;;;;;;;0.20;0.20;;;16.90;72.70;;;;;;4416580;32;20090;-74
2021/04/02 12:19:50;;;;;;;0.20;0.20;;;17.10;72.10;;;;;;4415973;32;20070;-73
2021/04/02 12:22:16;;;;;;;0.20;0.20;;;17.70;71.30;;;;;;4415641;32;20069;-74
2021/04/02 12:24:41;;;;;;;0.32;0.32;;;18.10;67.60;;;;;;4415340;32;20047;-74
2021/04/02 12:27:07;;;;;;;0.20;0.20;;;17.80;67.40;;;;;;4416029;32;20488;-74
2021/04/02 12:29:34;;;;;;;0.30;0.30;;;17.80;68.30;;;;;;4415692;32;20412;-74
2021/04/02 12:32:00;;;;;;;0.30;0.30;;;17.90;67.60;;;;;;4415885;32;20094;-74
2021/04/02 12:34:26;;;;;;;0.30;0.30;;;18.00;65.50;;;;;;4415390;32;20054;-74
2021/04/02 12:36:51;;;;;;;0.20;0.20;;;17.50;65.90;;;;;;4415174;32;20073;-74
2021/04/02 12:39:17;;;;;;;0.20;0.20;;;17.70;64.60;;;;;;4415708;32;20066;-74
2021/04/02 12:41:42;;;;;;;0.35;0.35;;;18.00;64.00;;;;;;4415805;32;20512;-74
2021/04/02 12:44:08;;;;;;;0.10;0.10;;;18.10;63.50;;;;;;4415409;32;20113;-74
2021/04/02 12:46:34;;;;;;;0.20;0.20;;;17.80;63.10;;;;;;4415633;32;20066;-73
2021/04/02 12:48:59;;;;;;;0.20;0.20;;;18.10;63.00;;;;;;4415388;32;20315;-74
2021/04/02 12:51:25;;;;;;;0.20;0.20;;;18.40;64.10;;;;;;4415199;32;20061;-74
2021/04/02 12:53:50;;;;;;;0.20;0.20;;;17.80;63.00;;;;;;4414988;32;20083;-73
2021/04/02 12:56:16;;;;;;;0.75;0.50;;;16.90;65.30;;;;;;4413732;32;20086;-76